Map

Track Data

SID SEASON NUMBER BASIN SUBBASIN NAME ISO_TIME NATURE LAT LON WMO_WIND WMO_PRES WMO_AGENCY TRACK_TYPE DIST2LAND LANDFALL IFLAG USA_AGENCY USA_ATCF_ID USA_LAT USA_LON USA_RECORD USA_STATUS USA_WIND USA_PRES USA_SSHS USA_R34_NE USA_R34_SE USA_R34_SW USA_R34_NW USA_R50_NE USA_R50_SE USA_R50_SW USA_R50_NW USA_R64_NE USA_R64_SE USA_R64_SW USA_R64_NW USA_POCI USA_ROCI USA_RMW USA_EYE TOKYO_LAT TOKYO_LON TOKYO_GRADE TOKYO_WIND TOKYO_PRES TOKYO_R50_DIR TOKYO_R50_LONG TOKYO_R50_SHORT TOKYO_R30_DIR TOKYO_R30_LONG TOKYO_R30_SHORT TOKYO_LAND CMA_LAT CMA_LON CMA_CAT CMA_WIND CMA_PRES HKO_LAT HKO_LON HKO_CAT HKO_WIND HKO_PRES NEWDELHI_LAT NEWDELHI_LON NEWDELHI_GRADE NEWDELHI_WIND NEWDELHI_PRES NEWDELHI_CI NEWDELHI_DP NEWDELHI_POCI REUNION_LAT REUNION_LON REUNION_TYPE REUNION_WIND REUNION_PRES REUNION_TNUM REUNION_CI REUNION_RMW REUNION_R34_NE REUNION_R34_SE REUNION_R34_SW REUNION_R34_NW REUNION_R50_NE REUNION_R50_SE REUNION_R50_SW REUNION_R50_NW REUNION_R64_NE REUNION_R64_SE REUNION_R64_SW REUNION_R64_NW BOM_LAT BOM_LON BOM_TYPE BOM_WIND BOM_PRES BOM_TNUM BOM_CI BOM_RMW BOM_R34_NE BOM_R34_SE BOM_R34_SW BOM_R34_NW BOM_R50_NE BOM_R50_SE BOM_R50_SW BOM_R50_NW BOM_R64_NE BOM_R64_SE BOM_R64_SW BOM_R64_NW BOM_ROCI BOM_POCI BOM_EYE BOM_POS_METHOD BOM_PRES_METHOD NADI_LAT NADI_LON NADI_CAT NADI_WIND NADI_PRES WELLINGTON_LAT WELLINGTON_LON WELLINGTON_WIND WELLINGTON_PRES DS824_LAT DS824_LON DS824_STAGE DS824_WIND DS824_PRES TD9636_LAT TD9636_LON TD9636_STAGE TD9636_WIND TD9636_PRES TD9635_LAT TD9635_LON TD9635_WIND TD9635_PRES TD9635_ROCI NEUMANN_LAT NEUMANN_LON NEUMANN_CLASS NEUMANN_WIND NEUMANN_PRES MLC_LAT MLC_LON MLC_CLASS MLC_WIND MLC_PRES USA_GUST BOM_GUST BOM_GUST_PER REUNION_GUST REUNION_GUST_PER USA_SEAHGT USA_SEARAD_NE USA_SEARAD_SE USA_SEARAD_SW USA_SEARAD_NW STORM_SPEED STORM_DIR
1987213N11268 1987 50 EP MM HILARY 1987-07-31 18:00:00 TS 10.7000 -92.4000 25 hurdat_epa main 377 374 O_________O___ hurdat_epa EP081987 10.7000 -92.4000 TD 25 -1 10.7000 -92.4000 1 25 10 286
1987213N11268 1987 50 EP MM HILARY 1987-07-31 21:00:00 TS 10.8393 -92.8989 main 388 383 P_________P___ EP081987 10.8376 -92.8975 TD 27 -1 10.8442 -92.9034 1 27 10 287
1987213N11268 1987 50 EP MM HILARY 1987-08-01 00:00:00 TS 11.0000 -93.4000 30 hurdat_epa main 396 393 O_________O___ hurdat_epa EP081987 11.0000 -93.4000 TD 30 -1 11.0000 -93.4000 1 30 10 290
1987213N11268 1987 50 EP MM HILARY 1987-08-01 03:00:00 TS 11.1938 -93.9018 main 405 405 P_________P___ EP081987 11.2000 -93.9075 TD 30 -1 11.1752 -93.8848 1 31 10 292
1987213N11268 1987 50 EP MM HILARY 1987-08-01 06:00:00 TS 11.3900 -94.3900 30 hurdat_epa main 421 421 O_________P___ hurdat_epa EP081987 11.4000 -94.4000 TD 30 -1 11.3599 -94.3602 1 32 10 292
1987213N11268 1987 50 EP MM HILARY 1987-08-01 09:00:00 TS 11.5586 -94.8452 main 429 429 P_________P___ EP081987 11.5649 -94.8501 TD 32 -1 11.5397 -94.8305 1 33 9 289
1987213N11268 1987 50 EP MM HILARY 1987-08-01 12:00:00 TS 11.7000 -95.3000 35 hurdat_epa main 458 434 O_________O___ hurdat_epa EP081987 11.7000 -95.3000 TS 35 0 11.7000 -95.3000 2 35 10 285
1987213N11268 1987 50 EP MM HILARY 1987-08-01 15:00:00 TS 11.8109 -95.7918 main 434 415 P_________P___ EP081987 11.8075 -95.8001 TS 37 0 11.8212 -95.7672 2 37 10 282
1987213N11268 1987 50 EP MM HILARY 1987-08-01 18:00:00 TS 11.9055 -96.2839 40 hurdat_epa main 415 403 O_________P___ hurdat_epa EP081987 11.9000 -96.3000 TS 40 0 11.9220 -96.2354 2 40 9 282
1987213N11268 1987 50 EP MM HILARY 1987-08-01 21:00:00 TS 12.0028 -96.7403 main 403 394 P_________P___ EP081987 11.9999 -96.7501 TS 42 0 12.0118 -96.7109 2 42 9 282
1987213N11268 1987 50 EP MM HILARY 1987-08-02 00:00:00 TS 12.1000 -97.2000 45 hurdat_epa main 397 392 O_________O___ hurdat_epa EP081987 12.1000 -97.2000 TS 45 0 12.1000 -97.2000 2 45 10 282
1987213N11268 1987 50 EP MM HILARY 1987-08-02 03:00:00 TS 12.1988 -97.6895 main 398 398 P_________P___ EP081987 12.1999 -97.6850 TS 50 0 12.1957 -97.7027 2 50 10 281
1987213N11268 1987 50 EP MM HILARY 1987-08-02 06:00:00 TS 12.2980 -98.2051 55 hurdat_epa main 407 407 O_________P___ hurdat_epa EP081987 12.3000 -98.2000 TS 55 0 12.2921 -98.2203 2 55 11 281
1987213N11268 1987 50 EP MM HILARY 1987-08-02 09:00:00 TS 12.3981 -98.7507 main 417 416 P_________P___ EP081987 12.4000 -98.7500 TS 60 0 12.3925 -98.7528 2 60 11 281
1987213N11268 1987 50 EP MM HILARY 1987-08-02 12:00:00 TS 12.5000 -99.3000 65 hurdat_epa main 423 423 O_________O___ hurdat_epa EP081987 12.5000 -99.3000 HU 65 1 12.5000 -99.3000 3 65 10 281
1987213N11268 1987 50 EP MM HILARY 1987-08-02 15:00:00 TS 12.5955 -99.8031 main 433 433 P_________P___ EP081987 12.5922 -99.7851 HU 67 1 12.6053 -99.8569 3 67 10 281
1987213N11268 1987 50 EP MM HILARY 1987-08-02 18:00:00 TS 12.7049 -100.332 70 hurdat_epa main 442 442 O_________P___ hurdat_epa EP081987 12.7000 -100.300 HU 70 1 12.7196 -100.428 3 70 12 282
1987213N11268 1987 50 EP MM HILARY 1987-08-02 21:00:00 TS 12.8385 -100.954 main 458 447 P_________P___ EP081987 12.8350 -100.935 HU 72 1 12.8490 -101.010 3 72 13 283
1987213N11268 1987 50 EP MM HILARY 1987-08-03 00:00:00 TS 13.0000 -101.600 75 hurdat_epa main 461 461 O_________O___ hurdat_epa EP081987 13.0000 -101.600 HU 75 1 13.0000 -101.600 4 75 13 286
1987213N11268 1987 50 EP MM HILARY 1987-08-03 03:00:00 TS 13.1888 -102.204 main 472 468 P_________P___ EP081987 13.1923 -102.208 HU 77 1 13.1781 -102.193 4 78 12 289
1987213N11268 1987 50 EP MM HILARY 1987-08-03 06:00:00 TS 13.3943 -102.798 80 hurdat_epa main 473 471 O_________P___ hurdat_epa EP081987 13.4000 -102.800 HU 80 1 13.3770 -102.793 4 82 12 289
1987213N11268 1987 50 EP MM HILARY 1987-08-03 09:00:00 TS 13.5968 -103.399 main 481 481 P_________P___ EP081987 13.5999 -103.400 HU 85 2 13.5875 -103.396 4 86 12 289
1987213N11268 1987 50 EP MM HILARY 1987-08-03 12:00:00 TS 13.8000 -104.000 90 hurdat_epa main 493 489 O_________O___ hurdat_epa EP081987 13.8000 -104.000 HU 90 2 13.8000 -104.000 4 90 12 289
1987213N11268 1987 50 EP MM HILARY 1987-08-03 15:00:00 TS 14.0019 -104.604 main 493 489 P_________P___ EP081987 13.9999 -104.600 HU 95 2 14.0079 -104.616 4 93 12 289
1987213N11268 1987 50 EP MM HILARY 1987-08-03 18:00:00 TS 14.2037 -105.208 100 hurdat_epa main 493 490 O_________P___ hurdat_epa EP081987 14.2000 -105.200 HU 100 3 14.2148 -105.230 4 97 12 289
1987213N11268 1987 50 EP MM HILARY 1987-08-03 21:00:00 TS 14.4091 -105.813 main 500 496 P_________P___ EP081987 14.4074 -105.808 HU 102 3 14.4143 -105.829 4 101 12 289
1987213N11268 1987 50 EP MM HILARY 1987-08-04 00:00:00 TS 14.6000 -106.400 105 hurdat_epa main 516 516 O_________O___ hurdat_epa EP081987 14.6000 -106.400 HU 105 3 14.6000 -106.400 4 105 12 288
1987213N11268 1987 50 EP MM HILARY 1987-08-04 03:00:00 TS 14.7610 -106.962 main 540 540 P_________P___ EP081987 14.7574 -106.973 HU 105 3 14.7718 -106.929 4 105 11 286
1987213N11268 1987 50 EP MM HILARY 1987-08-04 06:00:00 TS 14.9073 -107.483 105 hurdat_epa main 560 556 O_________P___ hurdat_epa EP081987 14.9000 -107.500 HU 105 3 14.9291 -107.430 4 105 10 287
1987213N11268 1987 50 EP MM HILARY 1987-08-04 09:00:00 TS 15.0609 -107.947 main 564 564 P_________P___ EP081987 15.0573 -107.958 HU 105 3 15.0719 -107.916 4 105 9 288
1987213N11268 1987 50 EP MM HILARY 1987-08-04 12:00:00 TS 15.2000 -108.400 105 hurdat_epa main 588 588 O_________O___ hurdat_epa EP081987 15.2000 -108.400 HU 105 3 15.2000 -108.400 4 105 10 285
1987213N11268 1987 50 EP MM HILARY 1987-08-04 15:00:00 TS 15.3071 -108.897 main 616 616 P_________P___ EP081987 15.3074 -108.893 HU 97 3 15.3060 -108.909 4 100 10 282
1987213N11268 1987 50 EP MM HILARY 1987-08-04 18:00:00 TS 15.3999 -109.404 90 hurdat_epa main 646 646 O_________P___ hurdat_epa EP081987 15.4000 -109.400 HU 90 2 15.3997 -109.416 4 95 10 281
1987213N11268 1987 50 EP MM HILARY 1987-08-04 21:00:00 TS 15.4927 -109.909 main 677 677 P_________P___ EP081987 15.4924 -109.908 HU 87 2 15.4936 -109.915 4 90 10 282
1987213N11268 1987 50 EP MM HILARY 1987-08-05 00:00:00 TS 15.6000 -110.400 85 hurdat_epa main 708 708 O_________O___ hurdat_epa EP081987 15.6000 -110.400 HU 85 2 15.6000 -110.400 4 85 9 285
1987213N11268 1987 50 EP MM HILARY 1987-08-05 03:00:00 TS 15.7385 -110.859 main 743 736 P_________P___ EP081987 15.7424 -110.858 HU 82 1 15.7271 -110.865 4 85 9 289
1987213N11268 1987 50 EP MM HILARY 1987-08-05 06:00:00 TS 15.8924 -111.304 80 hurdat_epa main 764 764 O_________P___ hurdat_epa EP081987 15.9000 -111.300 HU 80 1 15.8694 -111.315 4 85 9 289
1987213N11268 1987 50 EP MM HILARY 1987-08-05 09:00:00 TS 16.0330 -111.752 main 794 781 P_________P___ EP081987 16.0349 -111.750 HU 82 1 16.0271 -111.758 4 85 9 290
1987213N11268 1987 50 EP MM HILARY 1987-08-05 12:00:00 TS 16.2000 -112.200 85 hurdat_epa main 784 772 O_________O___ hurdat_epa EP081987 16.2000 -112.200 HU 85 2 16.2000 -112.200 4 85 10 295
1987213N11268 1987 50 EP MM HILARY 1987-08-05 15:00:00 TS 16.4297 -112.651 main 780 765 P_________P___ EP081987 16.4499 -112.650 HU 90 2 16.3692 -112.654 4 87 10 298
1987213N11268 1987 50 EP MM HILARY 1987-08-05 18:00:00 TS 16.6637 -113.102 95 hurdat_epa main 765 764 O_________P___ hurdat_epa EP081987 16.7000 -113.100 HU 95 2 16.5547 -113.108 4 90 10 295
1987213N11268 1987 50 EP MM HILARY 1987-08-05 21:00:00 TS 16.8282 -113.558 main 779 769 P_________P___ EP081987 16.8499 -113.558 HU 95 2 16.7629 -113.558 4 92 9 291
1987213N11268 1987 50 EP MM HILARY 1987-08-06 00:00:00 TS 17.0000 -114.000 95 hurdat_epa main 781 777 O_________O___ hurdat_epa EP081987 17.0000 -114.000 HU 95 2 17.0000 -114.000 4 95 9 297
1987213N11268 1987 50 EP MM HILARY 1987-08-06 03:00:00 TS 17.2346 -114.403 main 785 776 P_________P___ EP081987 17.2198 -114.400 HU 92 2 17.2787 -114.412 4 92 9 304
1987213N11268 1987 50 EP MM HILARY 1987-08-06 06:00:00 TS 17.5210 -114.805 90 hurdat_epa main 784 779 O_________P___ hurdat_epa EP081987 17.5000 -114.800 HU 90 2 17.5840 -114.820 4 90 10 308
1987213N11268 1987 50 EP MM HILARY 1987-08-06 09:00:00 TS 17.8560 -115.226 main 778 777 P_________P___ EP081987 17.8423 -115.220 HU 87 2 17.8974 -115.243 4 87 11 309
1987213N11268 1987 50 EP MM HILARY 1987-08-06 12:00:00 TS 18.2000 -115.700 85 hurdat_epa main 792 792 O_________O___ hurdat_epa EP081987 18.2000 -115.700 HU 85 2 18.2000 -115.700 4 85 12 303
1987213N11268 1987 50 EP MM HILARY 1987-08-06 15:00:00 TS 18.5102 -116.279 main 816 813 P_________P___ EP081987 18.5226 -116.292 HU 80 1 18.4729 -116.238 4 80 13 298
1987213N11268 1987 50 EP MM HILARY 1987-08-06 18:00:00 TS 18.7827 -116.877 75 hurdat_epa main 824 824 O_________P___ hurdat_epa EP081987 18.8000 -116.900 HU 75 1 18.7307 -116.807 4 75 12 295
1987213N11268 1987 50 EP MM HILARY 1987-08-06 21:00:00 TS 19.0044 -117.416 main 839 839 P_________P___ EP081987 19.0148 -117.430 HU 70 1 18.9730 -117.373 4 70 11 293
1987213N11268 1987 50 EP MM HILARY 1987-08-07 00:00:00 TS 19.2000 -117.900 65 hurdat_epa main 857 856 O_________O___ hurdat_epa EP081987 19.2000 -117.900 HU 65 1 19.2000 -117.900 4 65 9 295
1987213N11268 1987 50 EP MM HILARY 1987-08-07 03:00:00 TS 19.3992 -118.325 main 871 870 P_________P___ EP081987 19.3998 -118.315 HU 65 1 19.3975 -118.356 4 63 9 297
1987213N11268 1987 50 EP MM HILARY 1987-08-07 06:00:00 TS 19.5961 -118.717 65 hurdat_epa main 885 885 O_________P___ hurdat_epa EP081987 19.6000 -118.700 HU 65 1 19.5842 -118.769 4 62 8 298
1987213N11268 1987 50 EP MM HILARY 1987-08-07 09:00:00 TS 19.7891 -119.117 main 903 903 P_________P___ EP081987 19.7925 -119.108 HU 62 0 19.7789 -119.147 4 61 8 299
1987213N11268 1987 50 EP MM HILARY 1987-08-07 12:00:00 TS 20.0000 -119.500 60 hurdat_epa main 922 922 O_________O___ hurdat_epa EP081987 20.0000 -119.500 TS 60 0 20.0000 -119.500 2 60 8 303
1987213N11268 1987 50 EP MM HILARY 1987-08-07 15:00:00 TS 20.2454 -119.862 main 942 936 P_________P___ EP081987 20.2274 -119.865 TS 60 0 20.2994 -119.854 2 60 8 309
1987213N11268 1987 50 EP MM HILARY 1987-08-07 18:00:00 TS 20.5305 -120.197 60 hurdat_epa main 950 937 O_________P___ hurdat_epa EP081987 20.5000 -120.200 TS 60 0 20.6221 -120.187 2 60 9 316
1987213N11268 1987 50 EP MM HILARY 1987-08-07 21:00:00 TS 20.8822 -120.511 main 937 932 P_________P___ EP081987 20.8649 -120.515 TS 60 0 20.9338 -120.501 2 60 9 320
1987213N11268 1987 50 EP MM HILARY 1987-08-08 00:00:00 TS 21.2000 -120.800 60 hurdat_epa main 932 928 O_________O___ hurdat_epa EP081987 21.2000 -120.800 TS 60 0 21.2000 -120.800 2 60 7 315
1987213N11268 1987 50 EP MM HILARY 1987-08-08 03:00:00 TS 21.3853 -121.057 main 935 933 P_________P___ EP081987 21.3874 -121.050 TS 57 0 21.3790 -121.078 2 56 6 302
1987213N11268 1987 50 EP MM HILARY 1987-08-08 06:00:00 TS 21.5023 -121.311 55 hurdat_epa main 940 938 O_________P___ hurdat_epa EP081987 21.5000 -121.300 TS 55 0 21.5094 -121.343 2 52 5 294
1987213N11268 1987 50 EP MM HILARY 1987-08-08 09:00:00 TS 21.6081 -121.592 main 952 951 P_________P___ EP081987 21.6074 -121.585 TS 50 0 21.6102 -121.612 2 48 6 290
1987213N11268 1987 50 EP MM HILARY 1987-08-08 12:00:00 TS 21.7000 -121.900 45 hurdat_epa main 966 966 O_________O___ hurdat_epa EP081987 21.7000 -121.900 TS 45 0 21.7000 -121.900 2 45 6 288
1987213N11268 1987 50 EP MM HILARY 1987-08-08 15:00:00 TS 21.7989 -122.242 main 980 980 P_________P___ EP081987 21.8000 -122.243 TS 40 0 21.7959 -122.241 2 41 7 287
1987213N11268 1987 50 EP MM HILARY 1987-08-08 18:00:00 TS 21.8966 -122.600 35 hurdat_epa main 1003 1003 O_________P___ hurdat_epa EP081987 21.9000 -122.600 TS 35 0 21.8865 -122.600 2 37 7 286
1987213N11268 1987 50 EP MM HILARY 1987-08-08 21:00:00 TS 21.9903 -122.958 main 1027 1027 P_________P___ EP081987 21.9925 -122.958 TS 32 -1 21.9839 -122.960 2 33 7 287
1987213N11268 1987 50 EP MM HILARY 1987-08-09 00:00:00 TS 22.1000 -123.300 30 hurdat_epa main 1044 1044 O_________O___ hurdat_epa EP081987 22.1000 -123.300 TD 30 -1 22.1000 -123.300 1 30 7 293
1987213N11268 1987 50 EP MM HILARY 1987-08-09 03:00:00 TS 22.2406 -123.610 main 1061 1054 P_________P___ EP081987 22.2401 -123.610 TD 30 -1 22.2424 -123.609 1 30 6 298
1987213N11268 1987 50 EP MM HILARY 1987-08-09 06:00:00 TS 22.4000 -123.900 30 hurdat_epa main 1073 O_________O___ hurdat_epa EP081987 22.4000 -123.900 TD 30 -1 22.4000 -123.900 1 30 6 301

About IBTrACS Database

This database is a web-friendly format of International Best Track Archive for Climate Stewardship (IBTrACS), a global best track data archive curated by NOAA dating back to 1842.

Updated: 2021-10-21